| time (UTC) | temp C | wind direction | speed KPH | gust KPH | rain 1hr cm | rain 24hr cm | rain mn cm | humidity % | barometer mb |
| 20260504003027 | 19 | 268 | 0.0 | 6.4 | 0.00 | 0.00 | 0.00 | 43 | 1002.9 |
| 20260504001533 | 19 | 271 | 0.0 | 12.9 | 0.00 | 0.00 | 0.00 | 42 | 1002.9 |
| 20260504000025 | 20 | 260 | 0.0 | 11.3 | 0.00 | 0.00 | 0.00 | 41 | 1002.9 |
| 20260503234527 | 20 | 279 | 1.6 | 8.0 | 0.00 | 0.00 | 0.00 | 40 | 1002.8 |
| 20260503233024 | 20 | 275 | 3.2 | 14.5 | 0.00 | 0.00 | 0.00 | 40 | 1002.9 |
| 20260503231523 | 20 | 260 | 1.6 | 12.9 | 0.00 | 0.00 | 0.00 | 40 | 1002.9 |
| 20260503230022 | 20 | 271 | 0.0 | 9.7 | 0.00 | 0.00 | 0.00 | 39 | 1003.1 |
| 20260503224521 | 20 | 250 | 3.2 | 11.3 | 0.00 | 0.00 | 0.00 | 39 | 1003.1 |
| 20260503223021 | 20 | 300 | 3.2 | 20.9 | 0.00 | 0.00 | 0.00 | 38 | 1003.3 |
| 20260503221518 | 20 | 271 | 4.8 | 14.5 | 0.00 | 0.00 | 0.00 | 39 | 1003.5 |
| 20260503220028 | 20 | 242 | 3.2 | 14.5 | 0.00 | 0.00 | 0.00 | 39 | 1003.6 |
| 20260503214529 | 20 | 261 | 3.2 | 16.1 | 0.00 | 0.00 | 0.00 | 39 | 1003.7 |
| 20260503213028 | 20 | 240 | 8.0 | 16.1 | 0.00 | 0.00 | 0.00 | 38 | 1003.9 |
| 20260503211517 | 20 | 254 | 1.6 | 16.1 | 0.00 | 0.00 | 0.00 | 39 | 1003.9 |
| 20260503210015 | 20 | 262 | 8.0 | 16.1 | 0.00 | 0.00 | 0.00 | 41 | 1004.6 |
| 20260503204514 | 18 | 280 | 1.6 | 11.3 | 0.00 | 0.00 | 0.00 | 45 | 1004.8 |
| 20260503203009 | 18 | 278 | 3.2 | 25.7 | 0.00 | 0.00 | 0.00 | 46 | 1005.3 |
| 20260503201506 | 17 | 280 | 6.4 | 19.3 | 0.00 | 0.00 | 0.00 | 44 | 1005.2 |
| 20260503200005 | 18 | 267 | 11.3 | 22.5 | 0.00 | 0.00 | 0.00 | 41 | 1005.3 |
| 20260503194505 | 18 | 319 | 6.4 | 16.1 | 0.00 | 0.00 | 0.00 | 39 | 1005.3 |
| 20260503193006 | 18 | 70 | 3.2 | 12.9 | 0.00 | 0.00 | 0.00 | 39 | 1005.7 |
| 20260503191502 | 18 | 249 | 4.8 | 14.5 | 0.00 | 0.00 | 0.00 | 39 | 1005.8 |
| 20260503184557 | 18 | 277 | 3.2 | 17.7 | 0.00 | 0.00 | 0.00 | 41 | 1005.8 |
| 20260503183058 | 17 | 211 | 1.6 | 22.5 | 0.00 | 0.00 | 0.00 | 46 | 1006.1 |
| 20260503181559 | 16 | 265 | 3.2 | 22.5 | 0.00 | 0.00 | 0.00 | 47 | 1006.4 |
| 20260503180052 | 16 | 232 | 4.8 | 16.1 | 0.00 | 0.00 | 0.00 | 50 | 1006.8 |
| 20260503174553 | 16 | 300 | 3.2 | 14.5 | 0.00 | 0.00 | 0.00 | 50 | 1007.1 |
| 20260503173042 | 15 | 259 | 4.8 | 16.1 | 0.00 | 0.00 | 0.00 | 52 | 1007.5 |
| 20260503171541 | 13 | 211 | 3.2 | 16.1 | 0.00 | 0.00 | 0.00 | 56 | 1007.8 |